createdAt,value
2023-04-01T00:01:45.431Z,7.21
2023-04-01T00:04:12.601Z,7.14
2023-04-01T00:06:39.678Z,7.25
2023-04-01T00:09:07.994Z,7.13
2023-04-01T00:11:37.663Z,6.95
2023-04-01T00:14:07.426Z,6.82
2023-04-01T00:16:39.782Z,7.02
2023-04-01T00:19:07.072Z,7.05
2023-04-01T00:21:34.986Z,6.99
2023-04-01T00:24:02.022Z,7.20
2023-04-01T00:26:31.693Z,7.42
2023-04-01T00:29:04.053Z,7.16
2023-04-01T00:31:31.261Z,7.10
2023-04-01T00:33:58.419Z,7.06
2023-04-01T00:36:28.084Z,7.12
2023-04-01T00:38:55.239Z,7.07
2023-04-01T00:41:22.441Z,7.04
2023-04-01T00:43:51.238Z,7.07
2023-04-01T00:46:19.466Z,6.91
2023-04-01T00:48:52.648Z,6.71
2023-04-01T00:51:27.245Z,6.69
2023-04-01T00:53:59.250Z,6.59
2023-04-01T00:56:32.933Z,6.58
2023-04-01T00:59:07.823Z,6.55
2023-04-01T01:01:35.704Z,6.63
2023-04-01T01:04:02.898Z,6.84
2023-04-01T01:06:49.206Z,7.11
2023-04-01T01:09:43.468Z,7.10
2023-04-01T01:12:41.718Z,7.13
2023-04-01T01:15:27.510Z,7.12
2023-04-01T01:18:04.031Z,7.27
2023-04-01T01:20:55.865Z,7.48
2023-04-01T01:23:42.607Z,7.65
2023-04-01T01:26:45.388Z,7.54
2023-04-01T01:29:40.498Z,7.62
2023-04-01T01:32:11.618Z,7.06
2023-04-01T01:35:12.302Z,7.15
2023-04-01T01:37:42.159Z,7.26
2023-04-01T01:40:11.367Z,6.98
2023-04-01T01:42:43.039Z,6.73
2023-04-01T01:45:12.682Z,6.72
2023-04-01T01:47:39.959Z,6.45
2023-04-01T01:50:09.052Z,6.33
2023-04-01T01:52:35.787Z,6.51
2023-04-01T01:55:02.911Z,6.54
2023-04-01T01:57:49.588Z,6.52
2023-04-01T02:00:17.538Z,6.67
2023-04-01T02:02:45.598Z,6.70
2023-04-01T02:05:16.560Z,6.80
2023-04-01T02:07:44.472Z,6.82
2023-04-01T02:10:13.988Z,6.70
2023-04-01T02:12:43.780Z,6.80
2023-04-01T02:15:13.860Z,6.93
2023-04-01T02:17:43.676Z,7.11
2023-04-01T02:20:14.397Z,6.96
2023-04-01T02:22:45.481Z,7.09
2023-04-01T02:25:14.552Z,7.10
2023-04-01T02:27:41.589Z,7.12
2023-04-01T02:30:10.598Z,7.14
2023-04-01T02:32:37.976Z,7.15
2023-04-01T02:35:09.309Z,6.95
2023-04-01T02:37:39.157Z,7.06
2023-04-01T02:40:09.520Z,6.96
2023-04-01T02:42:39.156Z,7.00
2023-04-01T02:45:08.046Z,6.97
2023-04-01T02:47:35.410Z,7.24
2023-04-01T02:50:05.225Z,7.20
2023-04-01T02:52:34.809Z,7.03
2023-04-01T02:55:02.160Z,7.05
2023-04-01T02:57:29.439Z,7.27
2023-04-01T02:59:56.602Z,7.45
2023-04-01T03:02:23.818Z,7.41
2023-04-01T03:04:51.550Z,7.16
2023-04-01T03:07:18.676Z,7.24
2023-04-01T03:09:46.117Z,6.96
2023-04-01T03:12:17.808Z,6.86
2023-04-01T03:14:44.874Z,6.79
2023-04-01T03:17:11.990Z,6.76
2023-04-01T03:19:39.068Z,6.73
2023-04-01T03:22:07.261Z,6.85
2023-04-01T03:24:34.404Z,6.75
2023-04-01T03:27:03.956Z,6.88
2023-04-01T03:29:30.942Z,6.92
2023-04-01T03:31:57.984Z,6.70
2023-04-01T03:34:28.193Z,6.61
2023-04-01T03:36:55.190Z,6.67
2023-04-01T03:39:22.265Z,6.48
2023-04-01T03:42:22.861Z,6.45
2023-04-01T03:44:50.592Z,6.28
2023-04-01T03:47:18.436Z,6.19
2023-04-01T03:49:45.556Z,6.33
2023-04-01T03:52:12.690Z,6.33
2023-04-01T03:54:39.962Z,6.50
2023-04-01T03:57:07.073Z,6.37
2023-04-01T03:59:34.398Z,6.26
2023-04-01T04:02:01.598Z,6.28
2023-04-01T04:04:29.200Z,6.29
2023-04-01T04:06:56.326Z,6.35
2023-04-01T04:09:23.806Z,6.51
2023-04-01T04:11:52.086Z,6.32
2023-04-01T04:14:48.910Z,6.65
2023-04-01T04:17:18.537Z,6.93
2023-04-01T04:19:46.732Z,7.13
2023-04-01T04:22:13.965Z,6.62
2023-04-01T04:24:40.744Z,6.66
2023-04-01T04:27:07.517Z,6.32
2023-04-01T04:29:34.194Z,6.58
2023-04-01T04:32:06.040Z,6.88
2023-04-01T04:34:33.302Z,6.44
2023-04-01T04:37:01.833Z,6.71
2023-04-01T04:39:29.101Z,6.53
2023-04-01T04:41:56.312Z,6.29
2023-04-01T04:44:23.774Z,6.31
2023-04-01T04:46:51.646Z,6.33
2023-04-01T04:49:24.349Z,6.70
2023-04-01T04:51:54.121Z,6.40
2023-04-01T04:54:22.125Z,6.27
2023-04-01T04:56:50.452Z,6.36
2023-04-01T04:59:17.673Z,6.13
2023-04-01T05:01:47.608Z,6.11
2023-04-01T05:04:16.273Z,5.86
2023-04-01T05:06:44.066Z,5.86
2023-04-01T05:09:11.826Z,5.78
2023-04-01T05:11:38.975Z,5.77
2023-04-01T05:14:06.830Z,5.85
2023-04-01T05:16:37.083Z,5.94
2023-04-01T05:19:03.897Z,5.96
2023-04-01T05:21:30.999Z,5.88
2023-04-01T05:23:57.731Z,5.89
2023-04-01T05:26:24.873Z,5.81
2023-04-01T05:28:51.599Z,5.76
2023-04-01T05:31:18.376Z,5.70
2023-04-01T05:33:45.506Z,5.68
2023-04-01T05:40:06.289Z,5.88
2023-04-01T05:42:33.056Z,5.85
2023-04-01T05:44:59.851Z,5.92
2023-04-01T05:47:26.636Z,6.07
2023-04-01T05:49:53.419Z,5.76
2023-04-01T05:52:20.553Z,5.93
2023-04-01T05:54:47.675Z,5.90
2023-04-01T05:57:16.258Z,5.76
2023-04-01T05:59:43.205Z,5.94
2023-04-01T06:02:10.391Z,5.81
2023-04-01T06:04:39.231Z,5.83
2023-04-01T06:07:18.129Z,6.08
2023-04-01T06:09:45.200Z,6.21
2023-04-01T06:12:35.422Z,6.59
2023-04-01T06:15:14.667Z,6.39
2023-04-01T06:18:24.247Z,6.54
2023-04-01T06:21:02.991Z,6.43
2023-04-01T06:23:35.068Z,6.60
2023-04-01T06:26:34.635Z,6.67
2023-04-01T06:29:39.932Z,6.47
2023-04-01T06:32:28.955Z,6.18
2023-04-01T06:34:59.608Z,6.32
2023-04-01T06:38:04.061Z,6.22
2023-04-01T06:40:49.641Z,6.09
2023-04-01T06:43:35.896Z,6.02
2023-04-01T06:50:09.205Z,6.08
2023-04-01T06:52:46.461Z,5.95
2023-04-01T06:55:21.139Z,6.01
2023-04-01T06:57:50.775Z,5.92
2023-04-01T07:00:31.144Z,6.13
2023-04-01T07:03:05.512Z,6.13
2023-04-01T07:05:33.884Z,6.17
2023-04-01T07:08:03.096Z,6.42
2023-04-01T07:11:03.893Z,6.44
2023-04-01T07:13:35.565Z,6.59
2023-04-01T07:16:27.050Z,6.69
2023-04-01T07:18:54.659Z,6.40
2023-04-01T07:21:33.466Z,6.32
2023-04-01T07:24:17.791Z,6.11
2023-04-01T07:26:45.551Z,6.42
2023-04-01T07:29:13.779Z,6.21
2023-04-01T07:32:16.953Z,6.43
2023-04-01T07:35:15.192Z,6.13
2023-04-01T07:38:07.245Z,6.01
2023-04-01T07:41:01.899Z,5.98
2023-04-01T07:43:34.836Z,5.99
2023-04-01T07:46:15.142Z,6.11
2023-04-01T07:49:12.674Z,6.28
2023-04-01T07:52:07.071Z,6.36
2023-04-01T07:54:37.258Z,6.30
2023-04-01T07:57:22.185Z,6.66
2023-04-01T08:00:07.841Z,6.84
2023-04-01T08:03:02.853Z,6.56
2023-04-01T08:05:33.155Z,6.73
2023-04-01T08:08:02.885Z,6.83
2023-04-01T08:10:32.575Z,7.07
2023-04-01T08:13:23.396Z,7.03
2023-04-01T08:15:50.312Z,6.93
2023-04-01T08:18:49.469Z,7.09
2023-04-01T08:21:30.316Z,7.17
2023-04-01T08:24:05.413Z,7.15
2023-04-01T08:26:35.320Z,7.15
2023-04-01T08:29:11.465Z,7.32
2023-04-01T08:31:41.220Z,7.31
2023-04-01T08:34:17.728Z,7.55
2023-04-01T08:36:47.054Z,7.35
2023-04-01T08:39:17.692Z,7.26
2023-04-01T08:42:06.128Z,7.14
2023-04-01T08:44:55.346Z,7.12
2023-04-01T08:47:57.808Z,7.01
2023-04-01T08:50:27.960Z,7.11
2023-04-01T08:53:22.221Z,7.22
2023-04-01T08:56:37.036Z,7.21
2023-04-01T08:59:12.782Z,7.37
2023-04-01T09:01:58.772Z,7.68
2023-04-01T09:04:46.908Z,7.58
2023-04-01T09:07:20.545Z,7.64
2023-04-01T09:09:56.477Z,7.79
2023-04-01T09:13:06.441Z,8.09
2023-04-01T09:15:39.375Z,8.07
2023-04-01T09:18:42.148Z,8.43
2023-04-01T09:21:36.905Z,8.45
2023-04-01T09:24:36.102Z,8.19
2023-04-01T09:27:22.272Z,8.20
2023-04-01T09:30:08.129Z,8.37
2023-04-01T09:33:08.026Z,8.02
2023-04-01T09:35:47.721Z,8.21
2023-04-01T09:38:24.904Z,7.97
2023-04-01T09:41:14.265Z,7.80
2023-04-01T09:44:03.858Z,7.64
2023-04-01T09:47:07.844Z,7.70
2023-04-01T09:49:52.705Z,7.72
2023-04-01T09:52:38.127Z,7.94
2023-04-01T09:55:44.100Z,8.14
2023-04-01T09:58:48.298Z,8.08
2023-04-01T10:01:57.419Z,7.87
2023-04-01T10:04:47.282Z,7.93
2023-04-01T10:07:36.916Z,7.93
2023-04-01T10:10:19.024Z,7.82
2023-04-01T10:12:51.640Z,7.67
2023-04-01T10:15:46.331Z,7.36
2023-04-01T10:18:54.371Z,7.82
2023-04-01T10:21:28.595Z,8.12
2023-04-01T10:24:20.412Z,8.21
2023-04-01T10:31:08.959Z,9.21
2023-04-01T10:33:47.741Z,8.89
2023-04-01T10:36:32.213Z,8.72
2023-04-01T10:39:23.549Z,9.14
2023-04-01T10:42:09.197Z,9.27
2023-04-01T10:45:01.884Z,9.10
2023-04-01T10:47:47.463Z,8.92
2023-04-01T10:50:33.663Z,8.72
2023-04-01T10:53:20.620Z,9.17
2023-04-01T10:55:55.350Z,9.31
2023-04-01T10:58:45.178Z,9.18
2023-04-01T11:05:07.574Z,9.16
2023-04-01T11:08:04.868Z,8.97
2023-04-01T11:11:11.106Z,8.64
2023-04-01T11:13:59.260Z,8.57
2023-04-01T11:17:10.071Z,7.60
2023-04-01T11:19:46.048Z,7.44
2023-04-01T11:22:22.248Z,6.84
2023-04-01T11:24:56.277Z,6.94
2023-04-01T11:27:39.488Z,6.85
2023-04-01T11:30:32.573Z,6.72
2023-04-01T11:33:10.503Z,6.95
2023-04-01T11:35:48.639Z,7.23
2023-04-01T11:38:37.188Z,7.74
2023-04-01T11:41:25.699Z,8.21
2023-04-01T11:44:18.118Z,8.61
2023-04-01T11:50:37.388Z,9.62
2023-04-01T11:53:51.826Z,9.80
2023-04-01T11:56:46.154Z,9.52
2023-04-01T11:59:42.747Z,10.17
2023-04-01T12:02:34.807Z,9.25
2023-04-01T12:05:16.671Z,9.68
2023-04-01T12:07:52.847Z,9.19
2023-04-01T12:13:53.943Z,9.42
2023-04-01T12:16:35.471Z,9.91
2023-04-01T12:19:42.188Z,9.91
2023-04-01T12:22:22.034Z,10.29
2023-04-01T12:25:08.776Z,10.65
2023-04-01T12:28:09.241Z,10.55
2023-04-01T12:30:57.208Z,10.79
2023-04-01T12:33:51.370Z,10.75
2023-04-01T12:36:40.136Z,10.60
2023-04-01T12:39:23.011Z,11.12
2023-04-01T12:42:07.836Z,11.12
2023-04-01T12:44:43.347Z,11.57
2023-04-01T12:47:13.165Z,11.03
2023-04-01T12:50:11.465Z,11.07
2023-04-01T12:53:21.127Z,10.98
2023-04-01T12:55:48.722Z,10.84
2023-04-01T12:59:06.809Z,10.95
2023-04-01T13:01:50.767Z,10.44
2023-04-01T13:05:02.786Z,10.10
2023-04-01T13:07:32.303Z,10.28
2023-04-01T13:10:04.519Z,10.19
2023-04-01T13:13:14.244Z,10.41
2023-04-01T13:16:17.990Z,10.18
2023-04-01T13:18:56.045Z,9.90
2023-04-01T13:21:41.720Z,9.79
2023-04-01T13:24:23.593Z,9.75
2023-04-01T13:27:16.529Z,10.93
2023-04-01T13:33:47.468Z,10.45
2023-04-01T13:36:45.521Z,10.02
2023-04-01T13:39:41.317Z,10.09
2023-04-01T13:42:28.787Z,10.61
2023-04-01T13:45:13.301Z,10.45
2023-04-01T13:48:08.460Z,10.46
2023-04-01T13:51:14.198Z,10.39
2023-04-01T13:53:56.353Z,10.20
2023-04-01T13:56:44.568Z,10.28
2023-04-01T13:59:30.124Z,10.42
2023-04-01T14:02:20.618Z,10.37
2023-04-01T14:05:22.358Z,10.15
2023-04-01T14:08:15.421Z,10.18
2023-04-01T14:14:57.055Z,10.24
2023-04-01T14:17:32.868Z,10.28
2023-04-01T14:20:12.533Z,10.11
2023-04-01T14:22:58.981Z,9.88
2023-04-01T14:26:05.787Z,9.82
2023-04-01T14:28:48.235Z,9.65
2023-04-01T14:31:33.974Z,9.78
2023-04-01T14:34:12.549Z,9.85
2023-04-01T14:36:49.550Z,9.64
2023-04-01T14:39:48.977Z,9.72
2023-04-01T14:42:24.901Z,9.54
2023-04-01T14:45:03.562Z,9.61
2023-04-01T14:48:08.581Z,9.75
2023-04-01T14:50:43.100Z,9.81
2023-04-01T14:53:19.143Z,9.67
2023-04-01T14:55:52.444Z,9.38
2023-04-01T14:58:21.469Z,8.73
2023-04-01T15:00:49.379Z,8.69
2023-04-01T15:03:33.772Z,8.65
2023-04-01T15:06:37.948Z,8.47
2023-04-01T15:09:19.989Z,8.41
2023-04-01T15:11:52.101Z,8.34
2023-04-01T15:14:28.927Z,8.25
2023-04-01T15:17:33.368Z,8.35
2023-04-01T15:20:09.889Z,8.16
2023-04-01T15:23:14.035Z,8.04
2023-04-01T15:26:08.574Z,8.65
2023-04-01T15:28:43.721Z,9.07
2023-04-01T15:31:30.238Z,10.14
2023-04-01T15:34:21.784Z,10.00
2023-04-01T15:37:12.190Z,10.65
2023-04-01T15:39:50.037Z,11.01
2023-04-01T15:42:57.304Z,10.11
2023-04-01T15:49:21.549Z,9.55
2023-04-01T15:51:54.277Z,9.32
2023-04-01T15:54:47.457Z,9.36
2023-04-01T15:57:32.668Z,9.22
2023-04-01T16:00:05.330Z,9.30
2023-04-01T16:02:42.294Z,8.95
2023-04-01T16:05:49.337Z,9.40
2023-04-01T16:08:19.002Z,9.39
2023-04-01T16:11:12.709Z,9.17
2023-04-01T16:14:05.920Z,9.00
2023-04-01T16:16:46.024Z,8.91
2023-04-01T16:19:41.073Z,8.61
2023-04-01T16:22:36.691Z,8.62
2023-04-01T16:28:41.629Z,9.13
2023-04-01T16:31:15.992Z,8.92
2023-04-01T16:33:50.131Z,9.13
2023-04-01T16:36:37.317Z,9.16
2023-04-01T16:39:45.164Z,9.02
2023-04-01T16:42:23.346Z,9.21
2023-04-01T16:45:01.908Z,9.74
2023-04-01T16:47:42.083Z,9.34
2023-04-01T16:50:42.812Z,8.83
2023-04-01T16:53:12.841Z,8.78
2023-04-01T16:56:05.818Z,8.40
2023-04-01T16:59:08.752Z,8.61
2023-04-01T17:10:01.813Z,8.38
2023-04-01T17:12:40.011Z,8.31
2023-04-01T17:15:36.593Z,8.63
2023-04-01T17:18:41.164Z,8.47
2023-04-01T17:21:19.553Z,8.10
2023-04-01T17:23:52.550Z,7.94
2023-04-01T17:26:58.274Z,7.81
2023-04-01T17:29:36.797Z,8.05
2023-04-01T17:32:16.320Z,8.04
2023-04-01T17:35:06.133Z,8.15
2023-04-01T17:37:56.066Z,8.16
2023-04-01T17:40:32.782Z,7.95
2023-04-01T17:43:20.936Z,7.83
2023-04-01T17:46:24.731Z,7.87
2023-04-01T17:48:58.192Z,7.73
2023-04-01T17:51:32.254Z,7.66
2023-04-01T17:54:14.552Z,7.52
2023-04-01T17:56:50.267Z,7.35
2023-04-01T18:02:20.369Z,7.02
2023-04-01T18:04:55.057Z,6.87
2023-04-01T18:07:32.490Z,6.74
2023-04-01T18:10:27.933Z,6.80
2023-04-01T18:13:13.163Z,6.75
2023-04-01T18:18:42.833Z,6.70
2023-04-01T18:21:40.419Z,6.72
2023-04-01T18:24:15.414Z,7.09
2023-04-01T18:26:44.398Z,6.68
2023-04-01T18:29:17.816Z,6.84
2023-04-01T18:31:47.074Z,7.23
2023-04-01T18:34:40.772Z,7.04
2023-04-01T18:37:17.005Z,7.17
2023-04-01T18:39:55.145Z,7.31
2023-04-01T18:42:59.375Z,7.14
2023-04-01T18:49:37.821Z,7.84
2023-04-01T18:52:18.853Z,7.93
2023-04-01T18:55:03.760Z,7.78
2023-04-01T18:57:44.133Z,8.01
2023-04-01T19:00:36.032Z,7.41
2023-04-01T19:03:21.433Z,7.15
2023-04-01T19:05:49.321Z,6.90
2023-04-01T19:08:27.106Z,7.25
2023-04-01T19:11:02.850Z,7.28
2023-04-01T19:13:48.536Z,7.11
2023-04-01T19:16:39.253Z,7.32
2023-04-01T19:19:36.062Z,7.01
2023-04-01T19:22:27.008Z,7.18
2023-04-01T19:25:15.873Z,7.14
2023-04-01T19:27:53.917Z,7.30
2023-04-01T19:30:32.003Z,7.06
2023-04-01T19:33:23.968Z,6.78
2023-04-01T19:36:21.393Z,6.86
2023-04-01T19:39:26.266Z,6.52
2023-04-01T19:42:00.569Z,6.32
2023-04-01T19:45:13.145Z,6.35
2023-04-01T19:48:05.555Z,6.31
2023-04-01T19:50:35.266Z,6.16
2023-04-01T19:53:12.572Z,5.76
2023-04-01T19:55:50.710Z,5.96
2023-04-01T19:58:38.657Z,5.74
2023-04-01T20:05:00.224Z,5.89
2023-04-01T20:07:44.935Z,5.97
2023-04-01T20:10:46.726Z,5.93
2023-04-01T20:13:24.388Z,5.92
2023-04-01T20:16:09.078Z,6.07
2023-04-01T20:18:49.464Z,6.01
2023-04-01T20:21:23.567Z,6.17
2023-04-01T20:24:24.089Z,6.24
2023-04-01T20:27:08.657Z,6.75
2023-04-01T20:30:05.388Z,6.75
2023-04-01T20:32:48.003Z,6.58
2023-04-01T20:35:32.665Z,5.95
2023-04-01T20:38:23.017Z,6.26
2023-04-01T20:44:45.413Z,6.75
2023-04-01T20:47:33.597Z,6.33
2023-04-01T20:50:37.830Z,6.26
2023-04-01T20:53:17.367Z,6.30
2023-04-01T20:56:23.573Z,5.82
2023-04-01T20:59:38.383Z,5.81
2023-04-01T21:02:23.546Z,5.58
2023-04-01T21:05:34.686Z,5.53
2023-04-01T21:08:10.000Z,5.61
2023-04-01T21:10:39.649Z,5.62
2023-04-01T21:13:27.893Z,5.45
2023-04-01T21:16:09.586Z,5.34
2023-04-01T21:19:00.999Z,5.27
2023-04-01T21:22:21.894Z,5.24
2023-04-01T21:24:56.601Z,5.19
2023-04-01T21:27:47.553Z,5.62
2023-04-01T21:34:32.881Z,5.57
2023-04-01T21:37:18.354Z,5.66
2023-04-01T21:39:44.909Z,5.35
2023-04-01T21:42:35.572Z,6.13
2023-04-01T21:45:11.318Z,6.16
2023-04-01T21:47:49.317Z,5.95
2023-04-01T21:50:46.911Z,6.09
2023-04-01T21:53:32.950Z,6.08
2023-04-01T21:56:14.886Z,6.06
2023-04-01T21:59:00.300Z,6.21
2023-04-01T22:01:42.431Z,6.30
2023-04-01T22:04:22.068Z,6.42
2023-04-01T22:07:05.948Z,6.54
2023-04-01T22:09:36.105Z,6.84
2023-04-01T22:12:07.425Z,6.30
2023-04-01T22:14:54.189Z,5.80
2023-04-01T22:17:23.298Z,5.90
2023-04-01T22:19:57.261Z,5.86
2023-04-01T22:22:44.280Z,5.85
2023-04-01T22:25:16.228Z,5.70
2023-04-01T22:27:48.356Z,5.67
2023-04-01T22:30:23.844Z,5.96
2023-04-01T22:32:51.813Z,6.14
2023-04-01T22:35:52.207Z,6.14
2023-04-01T22:38:24.490Z,6.02
2023-04-01T22:41:00.175Z,6.36
2023-04-01T22:43:45.244Z,6.51
2023-04-01T22:46:21.136Z,6.84
2023-04-01T22:49:01.588Z,6.74
2023-04-01T22:51:55.343Z,6.45
2023-04-01T22:54:34.559Z,6.40
2023-04-01T22:57:08.775Z,5.99
2023-04-01T23:00:19.201Z,5.88
2023-04-01T23:03:09.967Z,5.48
2023-04-01T23:05:38.514Z,5.64
2023-04-01T23:08:24.756Z,5.61
2023-04-01T23:10:53.718Z,5.56
2023-04-01T23:13:23.506Z,6.17
2023-04-01T23:15:50.263Z,6.05
2023-04-01T23:18:40.213Z,6.43
2023-04-01T23:21:14.110Z,6.95
2023-04-01T23:23:53.608Z,6.36
2023-04-01T23:26:37.392Z,6.40
2023-04-01T23:29:04.130Z,5.74
2023-04-01T23:31:31.749Z,5.96
2023-04-01T23:34:02.329Z,5.93
2023-04-01T23:36:30.698Z,6.21
2023-04-01T23:38:57.411Z,6.77
2023-04-01T23:41:30.394Z,5.25
2023-04-01T23:44:09.745Z,5.53
2023-04-01T23:46:36.583Z,4.90
2023-04-01T23:49:03.752Z,4.88
2023-04-01T23:51:37.353Z,5.88
2023-04-01T23:54:05.209Z,5.79
2023-04-01T23:56:38.412Z,4.81
2023-04-01T23:59:05.234Z,4.96
